sensor_id;sensor_type;location;lat;lon;timestamp;pressure;altitude;pressure_sealevel;temperature;humidity
64336;BME280;50672;53.362;-6.240;2023-02-19T00:01:41;102575.41;;;9.45;71.17
64336;BME280;50672;53.362;-6.240;2023-02-19T00:04:16;102574.53;;;9.44;71.37
64336;BME280;50672;53.362;-6.240;2023-02-19T00:06:44;102581.69;;;9.45;71.33
64336;BME280;50672;53.362;-6.240;2023-02-19T00:09:13;102589.72;;;9.47;71.59
64336;BME280;50672;53.362;-6.240;2023-02-19T00:11:41;102580.72;;;9.46;71.60
64336;BME280;50672;53.362;-6.240;2023-02-19T00:14:10;102585.16;;;9.47;71.79
64336;BME280;50672;53.362;-6.240;2023-02-19T00:16:39;102596.91;;;9.48;71.49
64336;BME280;50672;53.362;-6.240;2023-02-19T00:19:11;102582.31;;;9.49;71.65
64336;BME280;50672;53.362;-6.240;2023-02-19T00:21:39;102590.59;;;9.47;71.68
64336;BME280;50672;53.362;-6.240;2023-02-19T00:24:06;102594.31;;;9.46;71.89
64336;BME280;50672;53.362;-6.240;2023-02-19T00:26:34;102594.44;;;9.45;71.74
64336;BME280;50672;53.362;-6.240;2023-02-19T00:29:01;102596.28;;;9.44;71.79
64336;BME280;50672;53.362;-6.240;2023-02-19T00:31:29;102594.53;;;9.43;72.01
64336;BME280;50672;53.362;-6.240;2023-02-19T00:34:01;102596.41;;;9.43;71.96
64336;BME280;50672;53.362;-6.240;2023-02-19T00:36:28;102592.19;;;9.38;72.00
64336;BME280;50672;53.362;-6.240;2023-02-19T00:38:56;102595.03;;;9.37;72.09
64336;BME280;50672;53.362;-6.240;2023-02-19T00:41:23;102585.53;;;9.31;72.46
64336;BME280;50672;53.362;-6.240;2023-02-19T00:44:02;102594.78;;;9.29;72.55
64336;BME280;50672;53.362;-6.240;2023-02-19T00:46:31;102599.47;;;9.27;72.69
64336;BME280;50672;53.362;-6.240;2023-02-19T00:48:59;102600.34;;;9.27;72.53
64336;BME280;50672;53.362;-6.240;2023-02-19T00:51:31;102621.94;;;9.29;72.70
64336;BME280;50672;53.362;-6.240;2023-02-19T00:53:58;102627.13;;;9.32;72.54
64336;BME280;50672;53.362;-6.240;2023-02-19T00:56:25;102630.63;;;9.34;72.98
64336;BME280;50672;53.362;-6.240;2023-02-19T00:58:52;102649.63;;;9.34;72.89
64336;BME280;50672;53.362;-6.240;2023-02-19T01:01:19;102645.19;;;9.33;72.71
64336;BME280;50672;53.362;-6.240;2023-02-19T01:03:46;102636.19;;;9.32;73.11
64336;BME280;50672;53.362;-6.240;2023-02-19T01:06:16;102627.13;;;9.32;72.71
64336;BME280;50672;53.362;-6.240;2023-02-19T01:08:44;102630.88;;;9.31;72.93
64336;BME280;50672;53.362;-6.240;2023-02-19T01:11:11;102637.28;;;9.30;73.11
64336;BME280;50672;53.362;-6.240;2023-02-19T01:13:38;102622.06;;;9.27;72.76
64336;BME280;50672;53.362;-6.240;2023-02-19T01:18:37;102624.78;;;9.27;72.79
64336;BME280;50672;53.362;-6.240;2023-02-19T01:21:06;102630.34;;;9.26;72.99
64336;BME280;50672;53.362;-6.240;2023-02-19T01:23:34;102628.72;;;9.23;73.14
64336;BME280;50672;53.362;-6.240;2023-02-19T01:26:11;102643.53;;;9.19;72.98
64336;BME280;50672;53.362;-6.240;2023-02-19T01:28:39;102634.66;;;9.17;73.28
64336;BME280;50672;53.362;-6.240;2023-02-19T01:31:08;102639.22;;;9.16;73.16
64336;BME280;50672;53.362;-6.240;2023-02-19T01:33:36;102640.19;;;9.15;73.44
64336;BME280;50672;53.362;-6.240;2023-02-19T01:36:04;102627.84;;;9.11;73.32
64336;BME280;50672;53.362;-6.240;2023-02-19T01:38:32;102634.50;;;9.07;73.39
64336;BME280;50672;53.362;-6.240;2023-02-19T01:41:01;102637.44;;;9.04;73.90
64336;BME280;50672;53.362;-6.240;2023-02-19T01:43:33;102647.94;;;8.97;73.73
64336;BME280;50672;53.362;-6.240;2023-02-19T01:46:00;102650.00;;;8.94;73.94
64336;BME280;50672;53.362;-6.240;2023-02-19T01:48:34;102656.41;;;8.93;74.11
64336;BME280;50672;53.362;-6.240;2023-02-19T01:51:08;102649.91;;;8.95;73.76
64336;BME280;50672;53.362;-6.240;2023-02-19T01:53:43;102639.69;;;8.99;73.93
64336;BME280;50672;53.362;-6.240;2023-02-19T01:56:14;102641.25;;;9.01;73.97
64336;BME280;50672;53.362;-6.240;2023-02-19T01:58:41;102629.53;;;9.01;74.37
64336;BME280;50672;53.362;-6.240;2023-02-19T02:01:08;102625.97;;;9.00;74.03
64336;BME280;50672;53.362;-6.240;2023-02-19T02:03:39;102642.28;;;9.00;73.95
64336;BME280;50672;53.362;-6.240;2023-02-19T02:06:14;102635.94;;;9.00;74.38
64336;BME280;50672;53.362;-6.240;2023-02-19T02:08:42;102634.38;;;8.97;74.48
64336;BME280;50672;53.362;-6.240;2023-02-19T02:11:29;102633.72;;;8.94;74.39
64336;BME280;50672;53.362;-6.240;2023-02-19T02:13:57;102634.28;;;8.86;74.47
64336;BME280;50672;53.362;-6.240;2023-02-19T02:22:16;102633.75;;;8.69;74.54
64336;BME280;50672;53.362;-6.240;2023-02-19T02:30:41;102673.03;;;8.77;74.50
64336;BME280;50672;53.362;-6.240;2023-02-19T02:33:30;102678.47;;;8.77;74.51
64336;BME280;50672;53.362;-6.240;2023-02-19T02:36:04;102689.44;;;8.75;74.71
64336;BME280;50672;53.362;-6.240;2023-02-19T02:38:34;102679.78;;;8.71;74.26
64336;BME280;50672;53.362;-6.240;2023-02-19T02:41:03;102679.16;;;8.67;74.69
64336;BME280;50672;53.362;-6.240;2023-02-19T02:43:31;102689.16;;;8.67;74.51
64336;BME280;50672;53.362;-6.240;2023-02-19T02:45:58;102685.47;;;8.68;74.30
64336;BME280;50672;53.362;-6.240;2023-02-19T02:48:48;102688.19;;;8.68;74.53
64336;BME280;50672;53.362;-6.240;2023-02-19T02:51:29;102673.31;;;8.61;74.68
64336;BME280;50672;53.362;-6.240;2023-02-19T02:54:07;102685.59;;;8.53;74.18
64336;BME280;50672;53.362;-6.240;2023-02-19T02:56:55;102693.53;;;8.44;74.57
64336;BME280;50672;53.362;-6.240;2023-02-19T02:59:31;102690.28;;;8.38;74.29
64336;BME280;50672;53.362;-6.240;2023-02-19T03:02:05;102694.84;;;8.38;74.34
64336;BME280;50672;53.362;-6.240;2023-02-19T03:05:01;102700.28;;;8.38;74.40
64336;BME280;50672;53.362;-6.240;2023-02-19T03:07:59;102702.16;;;8.37;74.41
64336;BME280;50672;53.362;-6.240;2023-02-19T03:10:45;102703.22;;;8.35;74.74
64336;BME280;50672;53.362;-6.240;2023-02-19T03:13:33;102709.63;;;8.34;74.81
64336;BME280;50672;53.362;-6.240;2023-02-19T03:16:27;102712.47;;;8.32;74.63
64336;BME280;50672;53.362;-6.240;2023-02-19T03:19:18;102712.22;;;8.35;74.63
64336;BME280;50672;53.362;-6.240;2023-02-19T03:21:59;102715.81;;;8.36;74.63
64336;BME280;50672;53.362;-6.240;2023-02-19T03:24:34;102708.66;;;8.35;74.65
64336;BME280;50672;53.362;-6.240;2023-02-19T03:27:22;102720.81;;;8.29;74.73
64336;BME280;50672;53.362;-6.240;2023-02-19T03:29:53;102724.84;;;8.24;74.63
64336;BME280;50672;53.362;-6.240;2023-02-19T03:32:41;102722.56;;;8.17;75.19
64336;BME280;50672;53.362;-6.240;2023-02-19T03:35:19;102724.66;;;8.14;75.21
64336;BME280;50672;53.362;-6.240;2023-02-19T03:37:59;102716.63;;;8.12;75.28
64336;BME280;50672;53.362;-6.240;2023-02-19T03:40:29;102723.25;;;8.08;75.17
64336;BME280;50672;53.362;-6.240;2023-02-19T03:53:57;102707.63;;;7.99;76.06
64336;BME280;50672;53.362;-6.240;2023-02-19T03:59:09;102713.84;;;8.01;76.40
64336;BME280;50672;53.362;-6.240;2023-02-19T04:01:51;102707.63;;;7.99;76.13
64336;BME280;50672;53.362;-6.240;2023-02-19T04:06:53;102726.72;;;7.97;76.38
64336;BME280;50672;53.362;-6.240;2023-02-19T04:09:22;102737.47;;;7.99;76.57
64336;BME280;50672;53.362;-6.240;2023-02-19T04:11:51;102736.63;;;7.98;76.76
64336;BME280;50672;53.362;-6.240;2023-02-19T04:17:00;102739.94;;;8.02;77.16
64336;BME280;50672;53.362;-6.240;2023-02-19T04:19:31;102735.19;;;8.06;77.09
64336;BME280;50672;53.362;-6.240;2023-02-19T04:22:00;102736.16;;;8.04;77.46
64336;BME280;50672;53.362;-6.240;2023-02-19T04:24:42;102753.28;;;8.05;77.50
64336;BME280;50672;53.362;-6.240;2023-02-19T04:27:10;102738.88;;;8.04;77.68
64336;BME280;50672;53.362;-6.240;2023-02-19T04:29:36;102735.94;;;8.08;77.77
64336;BME280;50672;53.362;-6.240;2023-02-19T04:32:04;102736.81;;;8.08;78.05
64336;BME280;50672;53.362;-6.240;2023-02-19T04:34:32;102741.34;;;8.08;77.94
64336;BME280;50672;53.362;-6.240;2023-02-19T04:36:58;102722.47;;;8.06;78.25
64336;BME280;50672;53.362;-6.240;2023-02-19T04:39:25;102735.06;;;8.07;78.30
64336;BME280;50672;53.362;-6.240;2023-02-19T04:41:52;102742.34;;;8.07;78.48
64336;BME280;50672;53.362;-6.240;2023-02-19T04:44:19;102757.44;;;8.11;78.56
64336;BME280;50672;53.362;-6.240;2023-02-19T04:46:46;102760.66;;;8.16;78.52
64336;BME280;50672;53.362;-6.240;2023-02-19T04:49:13;102759.59;;;8.18;78.64
64336;BME280;50672;53.362;-6.240;2023-02-19T04:51:40;102757.53;;;8.22;78.43
64336;BME280;50672;53.362;-6.240;2023-02-19T04:54:07;102759.03;;;8.26;78.80
64336;BME280;50672;53.362;-6.240;2023-02-19T04:56:34;102764.13;;;8.31;78.55
64336;BME280;50672;53.362;-6.240;2023-02-19T04:59:01;102774.75;;;8.34;78.86
64336;BME280;50672;53.362;-6.240;2023-02-19T05:01:28;102771.81;;;8.37;78.87
64336;BME280;50672;53.362;-6.240;2023-02-19T05:03:55;102769.75;;;8.41;78.92
64336;BME280;50672;53.362;-6.240;2023-02-19T05:06:21;102770.50;;;8.43;78.73
64336;BME280;50672;53.362;-6.240;2023-02-19T05:08:48;102764.09;;;8.44;78.89
64336;BME280;50672;53.362;-6.240;2023-02-19T05:11:15;102761.31;;;8.45;79.09
64336;BME280;50672;53.362;-6.240;2023-02-19T05:13:42;102755.63;;;8.48;78.84
64336;BME280;50672;53.362;-6.240;2023-02-19T05:16:11;102739.34;;;8.48;78.92
64336;BME280;50672;53.362;-6.240;2023-02-19T05:18:43;102729.28;;;8.50;78.78
64336;BME280;50672;53.362;-6.240;2023-02-19T05:21:11;102722.09;;;8.49;78.83
64336;BME280;50672;53.362;-6.240;2023-02-19T05:23:38;102733.94;;;8.48;79.03
64336;BME280;50672;53.362;-6.240;2023-02-19T05:26:07;102732.97;;;8.49;78.91
64336;BME280;50672;53.362;-6.240;2023-02-19T05:28:34;102734.81;;;8.49;79.28
64336;BME280;50672;53.362;-6.240;2023-02-19T05:31:06;102735.91;;;8.46;79.42
64336;BME280;50672;53.362;-6.240;2023-02-19T05:33:35;102734.34;;;8.42;79.28
64336;BME280;50672;53.362;-6.240;2023-02-19T05:36:08;102736.34;;;8.40;79.73
64336;BME280;50672;53.362;-6.240;2023-02-19T05:38:38;102731.00;;;8.38;79.60
64336;BME280;50672;53.362;-6.240;2023-02-19T05:41:16;102708.44;;;8.38;79.68
64336;BME280;50672;53.362;-6.240;2023-02-19T05:43:45;102698.78;;;8.34;80.10
64336;BME280;50672;53.362;-6.240;2023-02-19T05:46:14;102701.59;;;8.32;80.07
64336;BME280;50672;53.362;-6.240;2023-02-19T05:48:41;102703.59;;;8.30;80.17
64336;BME280;50672;53.362;-6.240;2023-02-19T05:51:11;102699.97;;;8.30;80.31
64336;BME280;50672;53.362;-6.240;2023-02-19T05:53:38;102704.66;;;8.28;80.34
64336;BME280;50672;53.362;-6.240;2023-02-19T05:59:00;102717.22;;;8.29;80.63
64336;BME280;50672;53.362;-6.240;2023-02-19T06:01:29;102702.69;;;8.30;80.75
64336;BME280;50672;53.362;-6.240;2023-02-19T06:03:56;102706.19;;;8.32;80.59
64336;BME280;50672;53.362;-6.240;2023-02-19T06:06:25;102700.75;;;8.32;80.94
64336;BME280;50672;53.362;-6.240;2023-02-19T06:08:52;102672.84;;;8.30;80.78
64336;BME280;50672;53.362;-6.240;2023-02-19T06:11:19;102674.06;;;8.26;80.87
64336;BME280;50672;53.362;-6.240;2023-02-19T06:13:46;102673.53;;;8.20;80.83
64336;BME280;50672;53.362;-6.240;2023-02-19T06:16:16;102676.25;;;8.20;80.84
64336;BME280;50672;53.362;-6.240;2023-02-19T06:18:44;102672.53;;;8.21;81.13
64336;BME280;50672;53.362;-6.240;2023-02-19T06:21:12;102668.00;;;8.22;81.28
64336;BME280;50672;53.362;-6.240;2023-02-19T06:23:39;102671.69;;;8.21;81.07
64336;BME280;50672;53.362;-6.240;2023-02-19T06:28:38;102671.69;;;8.21;81.48
64336;BME280;50672;53.362;-6.240;2023-02-19T06:31:06;102649.88;;;8.23;81.31
64336;BME280;50672;53.362;-6.240;2023-02-19T06:33:33;102647.16;;;8.23;81.35
64336;BME280;50672;53.362;-6.240;2023-02-19T06:36:03;102658.88;;;8.23;81.32
64336;BME280;50672;53.362;-6.240;2023-02-19T06:38:30;102645.41;;;8.21;81.24
64336;BME280;50672;53.362;-6.240;2023-02-19T06:41:01;102649.97;;;8.21;81.54
64336;BME280;50672;53.362;-6.240;2023-02-19T06:43:29;102657.47;;;8.17;81.68
64336;BME280;50672;53.362;-6.240;2023-02-19T06:46:04;102659.44;;;8.15;81.93
64336;BME280;50672;53.362;-6.240;2023-02-19T06:48:32;102661.06;;;8.18;81.89
64336;BME280;50672;53.362;-6.240;2023-02-19T06:50:59;102643.06;;;8.17;81.65
64336;BME280;50672;53.362;-6.240;2023-02-19T06:53:25;102646.72;;;8.16;81.62
64336;BME280;50672;53.362;-6.240;2023-02-19T06:56:06;102663.78;;;8.18;81.80
64336;BME280;50672;53.362;-6.240;2023-02-19T06:58:33;102679.06;;;8.19;82.08
64336;BME280;50672;53.362;-6.240;2023-02-19T07:01:00;102675.50;;;8.18;81.79
64336;BME280;50672;53.362;-6.240;2023-02-19T07:03:27;102666.38;;;8.19;82.18
64336;BME280;50672;53.362;-6.240;2023-02-19T07:05:54;102670.84;;;8.20;81.93
64336;BME280;50672;53.362;-6.240;2023-02-19T07:08:21;102669.84;;;8.21;82.01
64336;BME280;50672;53.362;-6.240;2023-02-19T07:10:57;102667.13;;;8.21;82.44
64336;BME280;50672;53.362;-6.240;2023-02-19T07:13:25;102668.97;;;8.21;82.45
64336;BME280;50672;53.362;-6.240;2023-02-19T07:16:00;102687.84;;;8.23;82.53
64336;BME280;50672;53.362;-6.240;2023-02-19T07:18:29;102695.13;;;8.22;82.58
64336;BME280;50672;53.362;-6.240;2023-02-19T07:21:04;102696.00;;;8.23;82.47
64336;BME280;50672;53.362;-6.240;2023-02-19T07:23:31;102699.44;;;8.25;82.52
64336;BME280;50672;53.362;-6.240;2023-02-19T07:25:58;102698.47;;;8.26;82.61
64336;BME280;50672;53.362;-6.240;2023-02-19T07:28:25;102702.06;;;8.26;82.74
64336;BME280;50672;53.362;-6.240;2023-02-19T07:30:53;102701.94;;;8.28;82.52
64336;BME280;50672;53.362;-6.240;2023-02-19T07:33:19;102707.25;;;8.29;82.66
64336;BME280;50672;53.362;-6.240;2023-02-19T07:35:47;102711.72;;;8.30;82.58
64336;BME280;50672;53.362;-6.240;2023-02-19T07:38:21;102712.56;;;8.31;82.68
64336;BME280;50672;53.362;-6.240;2023-02-19T07:43:18;102719.41;;;8.36;82.19
64336;BME280;50672;53.362;-6.240;2023-02-19T07:45:45;102726.44;;;8.39;82.23
64336;BME280;50672;53.362;-6.240;2023-02-19T07:48:12;102716.56;;;8.38;82.25
64336;BME280;50672;53.362;-6.240;2023-02-19T07:50:39;102724.72;;;8.38;82.26
64336;BME280;50672;53.362;-6.240;2023-02-19T07:53:06;102729.41;;;8.36;82.06
64336;BME280;50672;53.362;-6.240;2023-02-19T07:55:33;102728.50;;;8.35;82.30
64336;BME280;50672;53.362;-6.240;2023-02-19T07:58:00;102732.09;;;8.36;81.96
64336;BME280;50672;53.362;-6.240;2023-02-19T08:00:27;102735.78;;;8.35;82.23
64336;BME280;50672;53.362;-6.240;2023-02-19T08:02:54;102728.50;;;8.35;82.16
64336;BME280;50672;53.362;-6.240;2023-02-19T08:05:32;102732.09;;;8.36;81.78
64336;BME280;50672;53.362;-6.240;2023-02-19T08:07:59;102732.97;;;8.36;81.66
64336;BME280;50672;53.362;-6.240;2023-02-19T08:10:26;102728.38;;;8.37;82.01
64336;BME280;50672;53.362;-6.240;2023-02-19T08:13:14;102732.97;;;8.36;81.79
64336;BME280;50672;53.362;-6.240;2023-02-19T08:15:52;102731.09;;;8.37;81.92
64336;BME280;50672;53.362;-6.240;2023-02-19T08:18:25;102739.13;;;8.38;81.83
64336;BME280;50672;53.362;-6.240;2023-02-19T08:20:53;102725.56;;;8.38;81.85
64336;BME280;50672;53.362;-6.240;2023-02-19T08:23:21;102734.34;;;8.42;82.12
64336;BME280;50672;53.362;-6.240;2023-02-19T08:25:48;102739.59;;;8.45;81.81
64336;BME280;50672;53.362;-6.240;2023-02-19T08:28:16;102749.25;;;8.49;81.81
64336;BME280;50672;53.362;-6.240;2023-02-19T08:30:45;102748.16;;;8.52;81.96
64336;BME280;50672;53.362;-6.240;2023-02-19T08:33:17;102742.59;;;8.53;82.05
64336;BME280;50672;53.362;-6.240;2023-02-19T08:35:45;102737.06;;;8.55;81.80
64336;BME280;50672;53.362;-6.240;2023-02-19T08:38:13;102738.91;;;8.54;81.88
64336;BME280;50672;53.362;-6.240;2023-02-19T08:40:39;102747.06;;;8.54;82.12
64336;BME280;50672;53.362;-6.240;2023-02-19T08:43:09;102733.50;;;8.54;81.82
64336;BME280;50672;53.362;-6.240;2023-02-19T08:45:38;102727.22;;;8.54;81.86
64336;BME280;50672;53.362;-6.240;2023-02-19T08:48:06;102710.03;;;8.53;82.08
64336;BME280;50672;53.362;-6.240;2023-02-19T08:50:34;102726.31;;;8.53;81.69
64336;BME280;50672;53.362;-6.240;2023-02-19T08:53:02;102719.91;;;8.54;81.90
64336;BME280;50672;53.362;-6.240;2023-02-19T08:55:29;102716.25;;;8.55;81.75
64336;BME280;50672;53.362;-6.240;2023-02-19T08:57:56;102705.59;;;8.52;81.89
64336;BME280;50672;53.362;-6.240;2023-02-19T09:00:23;102699.19;;;8.53;81.92
64336;BME280;50672;53.362;-6.240;2023-02-19T09:02:50;102700.91;;;8.54;82.12
64336;BME280;50672;53.362;-6.240;2023-02-19T09:05:17;102704.50;;;8.55;82.01
64336;BME280;50672;53.362;-6.240;2023-02-19T09:07:43;102707.84;;;8.59;82.00
64336;BME280;50672;53.362;-6.240;2023-02-19T09:10:12;102709.59;;;8.60;81.99
64336;BME280;50672;53.362;-6.240;2023-02-19T09:12:39;102711.19;;;8.62;81.91
64336;BME280;50672;53.362;-6.240;2023-02-19T09:15:06;102717.38;;;8.64;82.26
64336;BME280;50672;53.362;-6.240;2023-02-19T09:17:33;102712.69;;;8.66;81.92
64336;BME280;50672;53.362;-6.240;2023-02-19T09:20:00;102722.59;;;8.67;81.74
64336;BME280;50672;53.362;-6.240;2023-02-19T09:22:27;102716.06;;;8.70;81.84
64336;BME280;50672;53.362;-6.240;2023-02-19T09:24:54;102717.81;;;8.71;81.91
64336;BME280;50672;53.362;-6.240;2023-02-19T09:27:20;102715.72;;;8.75;81.81
64336;BME280;50672;53.362;-6.240;2023-02-19T09:29:47;102716.25;;;8.80;81.71
64336;BME280;50672;53.362;-6.240;2023-02-19T09:32:14;102719.50;;;8.85;81.54
64336;BME280;50672;53.362;-6.240;2023-02-19T09:34:44;102720.75;;;8.92;81.71
64336;BME280;50672;53.362;-6.240;2023-02-19T09:37:10;102723.75;;;9.00;81.76
64336;BME280;50672;53.362;-6.240;2023-02-19T09:39:37;102724.91;;;9.09;81.67
64336;BME280;50672;53.362;-6.240;2023-02-19T09:42:19;102725.81;;;9.21;81.35
64336;BME280;50672;53.362;-6.240;2023-02-19T09:44:50;102724.25;;;9.30;81.22
64336;BME280;50672;53.362;-6.240;2023-02-19T09:47:20;102730.06;;;9.36;81.16
64336;BME280;50672;53.362;-6.240;2023-02-19T09:49:49;102735.50;;;9.36;81.09
64336;BME280;50672;53.362;-6.240;2023-02-19T09:52:18;102740.69;;;9.39;80.74
64336;BME280;50672;53.362;-6.240;2023-02-19T09:54:50;102743.53;;;9.38;80.90
64336;BME280;50672;53.362;-6.240;2023-02-19T09:57:19;102748.72;;;9.41;80.45
64336;BME280;50672;53.362;-6.240;2023-02-19T09:59:50;102758.38;;;9.45;80.56
64336;BME280;50672;53.362;-6.240;2023-02-19T10:02:19;102763.44;;;9.50;80.13
64336;BME280;50672;53.362;-6.240;2023-02-19T10:04:48;102757.56;;;9.56;80.15
64336;BME280;50672;53.362;-6.240;2023-02-19T10:07:43;102768.91;;;9.61;80.31
64336;BME280;50672;53.362;-6.240;2023-02-19T10:12:46;102757.59;;;9.67;79.72
64336;BME280;50672;53.362;-6.240;2023-02-19T10:15:33;102761.28;;;9.66;79.84
64336;BME280;50672;53.362;-6.240;2023-02-19T10:18:03;102757.06;;;9.62;79.51
64336;BME280;50672;53.362;-6.240;2023-02-19T10:20:31;102760.88;;;9.60;79.55
64336;BME280;50672;53.362;-6.240;2023-02-19T10:22:59;102751.00;;;9.58;79.24
64336;BME280;50672;53.362;-6.240;2023-02-19T10:25:27;102748.28;;;9.58;79.34
64336;BME280;50672;53.362;-6.240;2023-02-19T10:27:57;102752.59;;;9.61;79.25
64336;BME280;50672;53.362;-6.240;2023-02-19T10:30:29;102755.31;;;9.61;79.30
64336;BME280;50672;53.362;-6.240;2023-02-19T10:33:11;102746.44;;;9.59;79.24
64336;BME280;50672;53.362;-6.240;2023-02-19T10:35:56;102756.81;;;9.65;78.94
64336;BME280;50672;53.362;-6.240;2023-02-19T10:38:38;102758.72;;;9.76;78.88
64336;BME280;50672;53.362;-6.240;2023-02-19T10:41:11;102758.84;;;9.86;78.68
64336;BME280;50672;53.362;-6.240;2023-02-19T10:43:44;102765.41;;;9.95;78.61
64336;BME280;50672;53.362;-6.240;2023-02-19T10:46:17;102757.03;;;9.98;78.38
64336;BME280;50672;53.362;-6.240;2023-02-19T10:51:24;102760.47;;;9.88;78.02
64336;BME280;50672;53.362;-6.240;2023-02-19T10:54:32;102764.94;;;9.89;77.95
64336;BME280;50672;53.362;-6.240;2023-02-19T11:00:19;102759.69;;;9.86;77.62
64336;BME280;50672;53.362;-6.240;2023-02-19T11:02:48;102752.78;;;9.82;77.53
64336;BME280;50672;53.362;-6.240;2023-02-19T11:05:18;102756.38;;;9.83;77.68
64336;BME280;50672;53.362;-6.240;2023-02-19T11:07:55;102761.69;;;9.84;77.52
64336;BME280;50672;53.362;-6.240;2023-02-19T11:10:26;102772.06;;;9.90;77.49
64336;BME280;50672;53.362;-6.240;2023-02-19T11:12:56;102763.81;;;10.03;77.45
64336;BME280;50672;53.362;-6.240;2023-02-19T11:15:30;102759.63;;;10.11;77.44
64336;BME280;50672;53.362;-6.240;2023-02-19T11:18:20;102764.44;;;10.18;77.47
64336;BME280;50672;53.362;-6.240;2023-02-19T11:23:18;102761.25;;;10.36;76.72
64336;BME280;50672;53.362;-6.240;2023-02-19T11:25:48;102756.53;;;10.38;76.62
64336;BME280;50672;53.362;-6.240;2023-02-19T11:30:45;102747.38;;;10.39;76.51
64336;BME280;50672;53.362;-6.240;2023-02-19T11:35:43;102734.25;;;10.55;75.86
64336;BME280;50672;53.362;-6.240;2023-02-19T11:38:12;102742.66;;;10.64;75.61
64336;BME280;50672;53.362;-6.240;2023-02-19T11:48:47;102746.22;;;10.75;74.63
64336;BME280;50672;53.362;-6.240;2023-02-19T11:51:26;102728.00;;;10.87;74.64
64336;BME280;50672;53.362;-6.240;2023-02-19T11:54:13;102730.00;;;11.18;74.09
64336;BME280;50672;53.362;-6.240;2023-02-19T11:56:48;102722.34;;;11.33;73.85
64336;BME280;50672;53.362;-6.240;2023-02-19T12:04:55;102718.47;;;11.56;72.27
64336;BME280;50672;53.362;-6.240;2023-02-19T12:10:27;102702.28;;;11.86;71.39
64336;BME280;50672;53.362;-6.240;2023-02-19T12:24:07;102673.50;;;12.03;69.62
64336;BME280;50672;53.362;-6.240;2023-02-19T12:27:18;102672.84;;;12.10;69.09
64336;BME280;50672;53.362;-6.240;2023-02-19T12:32:46;102647.78;;;11.95;68.33
64336;BME280;50672;53.362;-6.240;2023-02-19T12:35:29;102634.13;;;11.95;68.33
64336;BME280;50672;53.362;-6.240;2023-02-19T12:41:17;102624.00;;;12.17;67.91
64336;BME280;50672;53.362;-6.240;2023-02-19T12:43:52;102601.00;;;12.10;67.75
64336;BME280;50672;53.362;-6.240;2023-02-19T12:46:33;102592.97;;;12.08;67.14
64336;BME280;50672;53.362;-6.240;2023-02-19T12:49:14;102577.31;;;12.20;67.19
64336;BME280;50672;53.362;-6.240;2023-02-19T12:51:47;102578.47;;;12.47;67.15
64336;BME280;50672;53.362;-6.240;2023-02-19T12:54:28;102571.44;;;12.35;66.80
64336;BME280;50672;53.362;-6.240;2023-02-19T12:56:59;102560.50;;;12.54;66.42
64336;BME280;50672;53.362;-6.240;2023-02-19T12:59:39;102558.34;;;12.68;66.08
64336;BME280;50672;53.362;-6.240;2023-02-19T13:05:00;102538.66;;;12.44;65.84
64336;BME280;50672;53.362;-6.240;2023-02-19T13:10:34;102528.03;;;12.31;65.84
64336;BME280;50672;53.362;-6.240;2023-02-19T13:13:09;102537.66;;;12.55;65.69
64336;BME280;50672;53.362;-6.240;2023-02-19T13:15:42;102526.75;;;13.12;65.15
64336;BME280;50672;53.362;-6.240;2023-02-19T13:19:05;102528.31;;;13.90;65.00
64336;BME280;50672;53.362;-6.240;2023-02-19T13:21:07;102530.84;;;14.56;64.40
64336;BME280;50672;53.362;-6.240;2023-02-19T13:23:37;102511.81;;;14.54;63.55
64336;BME280;50672;53.362;-6.240;2023-02-19T13:31:53;102526.59;;;14.07;62.37
64336;BME280;50672;53.362;-6.240;2023-02-19T13:36:55;102532.88;;;14.17;61.70
64336;BME280;50672;53.362;-6.240;2023-02-19T13:39:22;102518.94;;;14.11;61.39
64336;BME280;50672;53.362;-6.240;2023-02-19T13:41:50;102523.72;;;14.09;61.17
64336;BME280;50672;53.362;-6.240;2023-02-19T13:44:20;102517.28;;;14.00;60.94
64336;BME280;50672;53.362;-6.240;2023-02-19T13:46:49;102517.59;;;13.97;60.71
64336;BME280;50672;53.362;-6.240;2023-02-19T13:52:34;102509.47;;;14.23;60.44
64336;BME280;50672;53.362;-6.240;2023-02-19T14:01:05;102535.59;;;20.17;56.74
64336;BME280;50672;53.362;-6.240;2023-02-19T14:06:03;102538.16;;;22.83;53.51
64336;BME280;50672;53.362;-6.240;2023-02-19T14:08:57;102529.28;;;22.06;52.24
64336;BME280;50672;53.362;-6.240;2023-02-19T14:16:55;102528.47;;;21.29;49.11
64336;BME280;50672;53.362;-6.240;2023-02-19T14:33:34;102468.22;;;19.81;45.54
64336;BME280;50672;53.362;-6.240;2023-02-19T14:38:56;102471.19;;;17.51;46.20
64336;BME280;50672;53.362;-6.240;2023-02-19T14:41:24;102477.94;;;16.67;47.02
64336;BME280;50672;53.362;-6.240;2023-02-19T14:43:54;102463.53;;;15.99;47.54
64336;BME280;50672;53.362;-6.240;2023-02-19T14:46:35;102458.22;;;15.47;48.01
64336;BME280;50672;53.362;-6.240;2023-02-19T14:49:14;102451.22;;;15.18;48.71
64336;BME280;50672;53.362;-6.240;2023-02-19T14:51:47;102433.47;;;14.96;49.58
64336;BME280;50672;53.362;-6.240;2023-02-19T14:54:17;102441.03;;;14.67;50.11
64336;BME280;50672;53.362;-6.240;2023-02-19T14:56:49;102409.53;;;14.27;50.80
64336;BME280;50672;53.362;-6.240;2023-02-19T14:59:22;102423.28;;;13.91;51.16
64336;BME280;50672;53.362;-6.240;2023-02-19T15:04:53;102407.09;;;13.34;52.79
64336;BME280;50672;53.362;-6.240;2023-02-19T15:07:30;102392.31;;;13.17;53.07
64336;BME280;50672;53.362;-6.240;2023-02-19T15:10:02;102409.09;;;13.04;53.65
64336;BME280;50672;53.362;-6.240;2023-02-19T15:13:01;102389.16;;;12.94;54.20
64336;BME280;50672;53.362;-6.240;2023-02-19T15:15:37;102391.19;;;12.82;54.83
64336;BME280;50672;53.362;-6.240;2023-02-19T15:18:06;102385.34;;;12.77;55.50
64336;BME280;50672;53.362;-6.240;2023-02-19T15:20:35;102381.47;;;12.70;55.80
64336;BME280;50672;53.362;-6.240;2023-02-19T15:23:06;102382.66;;;12.67;55.98
64336;BME280;50672;53.362;-6.240;2023-02-19T15:25:35;102380.03;;;12.65;56.52
64336;BME280;50672;53.362;-6.240;2023-02-19T15:30:50;102373.59;;;12.57;57.04
64336;BME280;50672;53.362;-6.240;2023-02-19T15:33:18;102366.56;;;12.54;57.74
64336;BME280;50672;53.362;-6.240;2023-02-19T15:35:54;102363.84;;;12.54;57.65